createdAt,value
2018-07-05T00:01:40.455Z,20.30
2018-07-05T00:04:20.010Z,20.30
2018-07-05T00:06:59.678Z,20.20
2018-07-05T00:09:39.384Z,20.20
2018-07-05T00:12:19.222Z,20.20
2018-07-05T00:14:58.700Z,20.20
2018-07-05T00:17:38.192Z,20.10
2018-07-05T00:20:17.862Z,20.10
2018-07-05T00:22:57.521Z,20.10
2018-07-05T00:25:37.219Z,20.10
2018-07-05T00:28:16.948Z,20.00
2018-07-05T00:30:56.826Z,20.00
2018-07-05T00:33:36.543Z,19.90
2018-07-05T00:36:16.326Z,19.90
2018-07-05T00:38:55.891Z,19.90
2018-07-05T00:41:35.558Z,19.90
2018-07-05T00:44:15.561Z,20.00
2018-07-05T00:46:55.283Z,20.10
2018-07-05T00:49:35.027Z,20.10
2018-07-05T00:52:14.700Z,20.10
2018-07-05T00:54:54.275Z,20.10
2018-07-05T00:57:34.099Z,20.00
2018-07-05T01:00:13.800Z,19.90
2018-07-05T01:02:53.587Z,19.80
2018-07-05T01:05:33.275Z,19.70
2018-07-05T01:08:12.942Z,19.80
2018-07-05T01:10:52.656Z,19.70
2018-07-05T01:13:32.123Z,19.60
2018-07-05T01:16:11.800Z,19.60
2018-07-05T01:18:51.431Z,19.60
2018-07-05T01:21:31.152Z,19.60
2018-07-05T01:24:11.035Z,19.50
2018-07-05T01:26:50.560Z,19.50
2018-07-05T01:32:04.008Z,19.30
2018-07-05T01:34:43.876Z,19.40
2018-07-05T01:37:23.513Z,19.40
2018-07-05T01:40:03.012Z,19.30
2018-07-05T01:42:42.578Z,19.30
2018-07-05T01:45:22.141Z,19.20
2018-07-05T01:48:01.944Z,19.10
2018-07-05T01:50:41.736Z,19.00
2018-07-05T01:53:21.365Z,19.00
2018-07-05T02:01:08.314Z,18.90
2018-07-05T02:03:47.987Z,18.90
2018-07-05T02:06:27.799Z,18.90
2018-07-05T02:09:07.648Z,18.80
2018-07-05T02:11:47.216Z,18.70
2018-07-05T02:14:27.173Z,18.60
2018-07-05T02:17:06.743Z,18.60
2018-07-05T02:19:46.654Z,18.60
2018-07-05T02:25:00.103Z,18.50
2018-07-05T02:27:39.797Z,18.60
2018-07-05T02:30:19.431Z,18.60
2018-07-05T02:32:59.134Z,18.50
2018-07-05T02:35:38.731Z,18.50
2018-07-05T02:38:22.386Z,18.40
2018-07-05T02:41:02.571Z,18.40
2018-07-05T02:43:42.143Z,18.40
2018-07-05T02:46:22.031Z,18.30
2018-07-05T02:49:01.740Z,18.20
2018-07-05T02:51:41.600Z,18.20
2018-07-05T02:54:21.205Z,18.10
2018-07-05T02:57:00.646Z,18.10
2018-07-05T02:59:40.159Z,18.00
2018-07-05T03:02:19.786Z,18.00
2018-07-05T03:04:59.613Z,17.90
2018-07-05T03:07:39.145Z,17.90
2018-07-05T03:10:18.559Z,17.90
2018-07-05T03:15:32.041Z,17.90
2018-07-05T03:18:11.565Z,17.90
2018-07-05T03:20:51.325Z,17.90
2018-07-05T03:26:04.555Z,17.90
2018-07-05T03:28:44.208Z,17.90
2018-07-05T03:31:23.832Z,17.90
2018-07-05T03:34:03.345Z,17.90
2018-07-05T03:36:43.134Z,18.00
2018-07-05T03:39:22.751Z,18.10
2018-07-05T03:42:02.511Z,18.10
2018-07-05T03:44:42.011Z,18.10
2018-07-05T03:47:21.697Z,18.30
2018-07-05T03:50:01.384Z,18.40
2018-07-05T03:52:41.199Z,18.50
2018-07-05T03:55:20.988Z,18.50
2018-07-05T03:58:00.631Z,18.50
2018-07-05T04:00:40.474Z,18.50
2018-07-05T04:05:53.919Z,18.50
2018-07-05T04:11:17.212Z,18.60
2018-07-05T04:13:56.943Z,18.80
2018-07-05T04:16:36.599Z,18.90
2018-07-05T04:19:16.286Z,19.00
2018-07-05T04:21:55.907Z,19.10
2018-07-05T04:24:35.492Z,19.30
2018-07-05T04:27:15.068Z,19.40
2018-07-05T04:29:54.737Z,19.50
2018-07-05T04:32:34.440Z,19.60
2018-07-05T04:37:47.826Z,19.70
2018-07-05T04:40:27.632Z,19.80
2018-07-05T04:43:07.281Z,19.90
2018-07-05T04:45:46.915Z,20.00
2018-07-05T04:48:26.553Z,20.00
2018-07-05T04:51:06.260Z,20.10
2018-07-05T04:53:45.923Z,20.10
2018-07-05T04:56:25.547Z,20.20
2018-07-05T04:59:05.123Z,20.30
2018-07-05T05:01:44.663Z,20.40
2018-07-05T05:04:24.307Z,20.50
2018-07-05T05:07:03.977Z,20.60
2018-07-05T05:09:43.517Z,20.70
2018-07-05T05:12:23.235Z,20.50
2018-07-05T05:15:02.935Z,20.30
2018-07-05T05:20:16.350Z,20.50
2018-07-05T05:22:55.995Z,20.60
2018-07-05T05:25:35.712Z,20.70
2018-07-05T05:28:15.390Z,20.80
2018-07-05T05:30:55.004Z,20.90
2018-07-05T05:33:34.741Z,21.00
2018-07-05T05:36:14.478Z,21.20
2018-07-05T05:38:54.051Z,21.30
2018-07-05T05:41:33.831Z,21.50
2018-07-05T05:44:13.331Z,21.60
2018-07-05T05:46:52.981Z,21.70
2018-07-05T05:49:32.624Z,21.90
2018-07-05T05:52:12.246Z,22.00
2018-07-05T05:54:51.831Z,22.10
2018-07-05T05:57:31.350Z,22.30
2018-07-05T06:00:11.051Z,22.70
2018-07-05T06:02:50.914Z,23.10
2018-07-05T06:05:30.648Z,23.40
2018-07-05T06:10:43.676Z,23.50
2018-07-05T06:13:23.379Z,23.40
2018-07-05T06:16:02.904Z,23.40
2018-07-05T06:18:42.629Z,23.40
2018-07-05T06:21:22.280Z,23.50
2018-07-05T06:24:01.889Z,23.60
2018-07-05T06:26:41.659Z,23.80
2018-07-05T06:29:21.388Z,23.90
2018-07-05T06:34:34.594Z,24.10
2018-07-05T06:37:14.364Z,24.10
2018-07-05T06:39:54.052Z,24.30
2018-07-05T06:42:33.427Z,24.30
2018-07-05T06:45:12.958Z,24.40
2018-07-05T06:47:52.525Z,24.50
2018-07-05T06:50:32.023Z,24.50
2018-07-05T06:53:11.819Z,24.60
2018-07-05T06:55:51.541Z,24.70
2018-07-05T06:58:31.155Z,24.80
2018-07-05T07:01:10.871Z,24.90
2018-07-05T07:03:50.939Z,25.00
2018-07-05T07:06:30.619Z,25.00
2018-07-05T07:09:10.323Z,25.00
2018-07-05T07:14:23.747Z,25.10
2018-07-05T07:17:03.524Z,25.10
2018-07-05T07:22:16.779Z,25.30
2018-07-05T07:24:56.526Z,25.50
2018-07-05T07:27:36.171Z,25.70
2018-07-05T07:30:15.900Z,25.80
2018-07-05T07:32:55.482Z,26.00
2018-07-05T07:35:35.185Z,26.20
2018-07-05T07:38:14.934Z,26.40
2018-07-05T07:40:54.479Z,26.50
2018-07-05T07:43:21.701Z,26.70
2018-07-05T07:45:48.925Z,26.70
2018-07-05T07:48:16.079Z,27.00
2018-07-05T07:50:43.264Z,27.50
2018-07-05T07:53:10.440Z,27.80
2018-07-05T07:55:37.623Z,27.70
2018-07-05T07:58:04.798Z,27.60
2018-07-05T08:00:32.558Z,27.40
2018-07-05T08:02:59.758Z,27.40
2018-07-05T08:05:27.343Z,27.30
2018-07-05T08:10:21.984Z,27.30
2018-07-05T08:12:49.175Z,27.20
2018-07-05T08:15:16.349Z,27.10
2018-07-05T08:20:10.978Z,27.00
2018-07-05T08:22:38.135Z,26.90
2018-07-05T08:25:05.319Z,27.00
2018-07-05T08:27:32.528Z,27.00
2018-07-05T08:29:59.727Z,27.10
2018-07-05T08:32:26.911Z,27.30
2018-07-05T08:37:21.544Z,27.60
2018-07-05T08:39:48.736Z,27.70
2018-07-05T08:42:15.957Z,27.70
2018-07-05T08:44:43.150Z,27.70
2018-07-05T08:47:10.385Z,27.50
2018-07-05T08:49:37.575Z,27.40
2018-07-05T08:52:04.763Z,27.50
2018-07-05T08:54:31.954Z,27.40
2018-07-05T08:56:59.158Z,27.50
2018-07-05T08:59:26.361Z,27.70
2018-07-05T09:01:53.560Z,27.70
2018-07-05T09:04:20.752Z,27.90
2018-07-05T09:06:47.958Z,27.90
2018-07-05T09:09:15.162Z,27.70
2018-07-05T09:11:42.364Z,27.90
2018-07-05T09:14:09.560Z,28.00
2018-07-05T09:16:36.733Z,28.10
2018-07-05T09:19:03.929Z,28.20
2018-07-05T09:21:31.140Z,28.30
2018-07-05T09:23:58.468Z,28.40
2018-07-05T09:26:25.651Z,28.50
2018-07-05T09:28:52.873Z,28.60
2018-07-05T09:31:20.272Z,28.60
2018-07-05T09:33:47.453Z,28.60
2018-07-05T09:36:15.170Z,28.70
2018-07-05T09:38:42.378Z,28.80
2018-07-05T09:41:09.570Z,28.80
2018-07-05T09:43:36.756Z,28.80
2018-07-05T09:46:03.944Z,28.90
2018-07-05T09:48:31.160Z,28.90
2018-07-05T09:50:58.339Z,28.90
2018-07-05T09:53:25.540Z,29.00
2018-07-05T09:55:52.795Z,29.00
2018-07-05T09:58:20.023Z,29.10
2018-07-05T10:00:49.702Z,29.20
2018-07-05T10:03:17.966Z,29.30
2018-07-05T10:05:45.475Z,29.40
2018-07-05T10:08:12.778Z,29.60
2018-07-05T10:10:39.976Z,29.70
2018-07-05T10:13:07.613Z,29.80
2018-07-05T10:15:34.739Z,30.00
2018-07-05T10:18:02.035Z,30.20
2018-07-05T10:20:29.232Z,30.30
2018-07-05T10:22:56.392Z,30.40
2018-07-05T10:25:23.597Z,30.40
2018-07-05T10:27:50.796Z,30.30
2018-07-05T10:30:30.326Z,30.30
2018-07-05T10:33:09.991Z,30.20
2018-07-05T10:35:37.157Z,30.20
2018-07-05T10:38:04.817Z,30.20
2018-07-05T10:40:44.989Z,30.10
2018-07-05T10:43:24.548Z,29.60
2018-07-05T10:46:04.189Z,29.60
2018-07-05T10:48:44.035Z,29.70
2018-07-05T10:51:23.789Z,29.70
2018-07-05T10:54:03.469Z,29.50
2018-07-05T10:56:43.176Z,29.40
2018-07-05T10:59:22.792Z,29.40
2018-07-05T11:04:36.213Z,29.60
2018-07-05T11:07:15.772Z,29.70
2018-07-05T11:09:55.488Z,29.80
2018-07-05T11:12:35.233Z,29.90
2018-07-05T11:15:15.034Z,30.00
2018-07-05T11:17:54.626Z,30.10
2018-07-05T11:20:34.279Z,30.00
2018-07-05T11:23:13.910Z,30.10
2018-07-05T11:25:53.854Z,30.00
2018-07-05T11:28:33.409Z,29.90
2018-07-05T11:31:13.124Z,30.00
2018-07-05T11:33:52.705Z,29.80
2018-07-05T11:36:32.300Z,29.60
2018-07-05T11:41:46.478Z,29.70
2018-07-05T11:44:26.116Z,29.80
2018-07-05T11:47:05.921Z,30.00
2018-07-05T11:49:45.468Z,30.10
2018-07-05T11:52:25.035Z,30.20
2018-07-05T11:55:04.615Z,30.30
2018-07-05T11:57:44.210Z,30.20
2018-07-05T12:00:23.876Z,30.20
2018-07-05T12:03:03.535Z,30.40
2018-07-05T12:05:43.189Z,30.40
2018-07-05T12:08:22.951Z,30.40
2018-07-05T12:11:02.639Z,30.50
2018-07-05T12:13:42.473Z,30.50
2018-07-05T12:16:22.156Z,30.50
2018-07-05T12:19:01.960Z,30.50
2018-07-05T12:21:41.721Z,30.50
2018-07-05T12:24:21.405Z,30.40
2018-07-05T12:27:01.034Z,30.50
2018-07-05T12:29:40.677Z,30.60
2018-07-05T12:32:20.419Z,30.70
2018-07-05T12:35:00.286Z,30.60
2018-07-05T12:37:39.976Z,30.80
2018-07-05T12:40:19.710Z,30.70
2018-07-05T12:42:59.307Z,30.70
2018-07-05T12:45:38.884Z,30.60
2018-07-05T12:48:18.537Z,30.80
2018-07-05T12:50:58.265Z,30.90
2018-07-05T12:53:38.247Z,30.90
2018-07-05T12:56:17.991Z,30.90
2018-07-05T12:58:57.791Z,30.70
2018-07-05T13:01:37.475Z,30.60
2018-07-05T13:04:17.249Z,30.40
2018-07-05T13:06:56.726Z,30.50
2018-07-05T13:09:36.456Z,30.50
2018-07-05T13:12:15.858Z,30.40
2018-07-05T13:14:55.549Z,30.30
2018-07-05T13:17:35.291Z,30.20
2018-07-05T13:20:15.021Z,30.30
2018-07-05T13:22:54.603Z,30.40
2018-07-05T13:25:34.308Z,30.60
2018-07-05T13:28:13.823Z,30.80
2018-07-05T13:30:53.465Z,30.60
2018-07-05T13:33:33.029Z,30.70
2018-07-05T13:36:12.780Z,30.60
2018-07-05T13:38:52.416Z,30.70
2018-07-05T13:41:31.962Z,30.80
2018-07-05T13:44:11.668Z,30.90
2018-07-05T13:46:51.419Z,30.90
2018-07-05T13:49:31.095Z,30.90
2018-07-05T13:52:10.853Z,30.90
2018-07-05T13:54:50.684Z,30.80
2018-07-05T13:57:30.329Z,30.70
2018-07-05T14:00:09.827Z,30.60
2018-07-05T14:02:49.610Z,30.60
2018-07-05T14:05:29.275Z,30.70
2018-07-05T14:08:08.834Z,30.30
2018-07-05T14:10:48.488Z,30.00
2018-07-05T14:13:28.415Z,29.80
2018-07-05T14:16:08.056Z,30.00
2018-07-05T14:18:47.749Z,30.10
2018-07-05T14:21:27.567Z,30.10
2018-07-05T14:24:07.471Z,30.10
2018-07-05T14:26:47.186Z,30.00
2018-07-05T14:29:27.102Z,30.10
2018-07-05T14:32:06.760Z,30.10
2018-07-05T14:34:46.455Z,30.10
2018-07-05T14:37:26.113Z,30.20
2018-07-05T14:40:05.800Z,30.20
2018-07-05T14:42:45.525Z,30.10
2018-07-05T14:45:25.072Z,30.10
2018-07-05T14:48:04.767Z,30.10
2018-07-05T14:50:44.432Z,29.90
2018-07-05T14:53:24.232Z,29.90
2018-07-05T14:56:03.808Z,29.90
2018-07-05T14:58:43.519Z,29.80
2018-07-05T15:01:23.183Z,29.80
2018-07-05T15:04:02.794Z,29.80
2018-07-05T15:06:42.293Z,29.80
2018-07-05T15:09:22.038Z,29.80
2018-07-05T15:12:01.621Z,29.80
2018-07-05T15:14:41.405Z,29.90
2018-07-05T15:17:21.087Z,29.90
2018-07-05T15:20:00.828Z,29.90
2018-07-05T15:22:40.418Z,30.00
2018-07-05T15:25:19.985Z,29.90
2018-07-05T15:27:59.562Z,29.70
2018-07-05T15:30:39.339Z,29.50
2018-07-05T15:33:19.014Z,29.40
2018-07-05T15:35:58.714Z,29.40
2018-07-05T15:38:38.347Z,29.50
2018-07-05T15:41:18.038Z,29.50
2018-07-05T15:43:57.787Z,29.50
2018-07-05T15:49:11.238Z,29.50
2018-07-05T15:51:50.912Z,29.40
2018-07-05T15:54:30.621Z,29.40
2018-07-05T15:57:10.155Z,29.30
2018-07-05T15:59:52.866Z,29.30
2018-07-05T16:02:38.807Z,29.40
2018-07-05T16:05:18.537Z,29.40
2018-07-05T16:07:59.240Z,29.50
2018-07-05T16:10:42.757Z,29.40
2018-07-05T16:13:22.348Z,29.40
2018-07-05T16:16:02.001Z,29.40
2018-07-05T16:18:41.759Z,29.30
2018-07-05T16:21:21.463Z,29.30
2018-07-05T16:26:34.888Z,29.20
2018-07-05T16:29:14.439Z,29.10
2018-07-05T16:31:53.940Z,29.10
2018-07-05T16:34:33.499Z,29.00
2018-07-05T16:37:13.204Z,28.90
2018-07-05T16:39:52.985Z,28.90
2018-07-05T16:42:32.663Z,28.80
2018-07-05T16:45:12.411Z,28.70
2018-07-05T16:47:52.024Z,28.70
2018-07-05T16:50:31.755Z,28.70
2018-07-05T16:53:11.507Z,28.70
2018-07-05T16:55:51.027Z,28.70
2018-07-05T16:58:30.608Z,28.70
2018-07-05T17:03:43.996Z,28.50
2018-07-05T17:06:23.711Z,28.40
2018-07-05T17:09:03.154Z,28.40
2018-07-05T17:11:42.732Z,28.40
2018-07-05T17:14:22.356Z,28.30
2018-07-05T17:17:01.945Z,28.20
2018-07-05T17:19:41.646Z,28.20
2018-07-05T17:22:21.329Z,28.20
2018-07-05T17:25:01.054Z,28.10
2018-07-05T17:27:40.775Z,28.10
2018-07-05T17:30:20.574Z,28.00
2018-07-05T17:33:00.203Z,28.00
2018-07-05T17:35:39.888Z,27.90
2018-07-05T17:38:19.512Z,27.80
2018-07-05T17:40:59.245Z,27.80
2018-07-05T17:43:39.071Z,27.80
2018-07-05T17:46:18.856Z,27.70
2018-07-05T17:48:58.447Z,27.60
2018-07-05T17:51:38.185Z,27.60
2018-07-05T17:54:17.898Z,27.60
2018-07-05T17:56:57.464Z,27.60
2018-07-05T17:59:37.078Z,27.50
2018-07-05T18:02:16.828Z,27.50
2018-07-05T18:04:56.512Z,27.40
2018-07-05T18:07:36.049Z,27.30
2018-07-05T18:10:15.576Z,27.30
2018-07-05T18:12:55.137Z,27.20
2018-07-05T18:15:34.637Z,27.20
2018-07-05T18:18:14.301Z,27.10
2018-07-05T18:20:53.965Z,27.00
2018-07-05T18:23:33.470Z,27.00
2018-07-05T18:26:13.080Z,26.90
2018-07-05T18:28:52.686Z,26.90
2018-07-05T18:31:32.389Z,26.90
2018-07-05T18:34:12.061Z,27.00
2018-07-05T18:36:51.674Z,27.00
2018-07-05T18:39:31.476Z,26.80
2018-07-05T18:42:11.176Z,26.70
2018-07-05T18:44:50.898Z,26.70
2018-07-05T18:47:30.549Z,26.50
2018-07-05T18:50:10.325Z,26.40
2018-07-05T18:52:50.066Z,26.30
2018-07-05T18:55:29.690Z,26.10
2018-07-05T18:58:09.426Z,26.00
2018-07-05T19:00:49.038Z,25.90
2018-07-05T19:03:28.880Z,25.80
2018-07-05T19:06:08.795Z,25.70
2018-07-05T19:08:48.577Z,25.60
2018-07-05T19:11:28.337Z,25.50
2018-07-05T19:14:08.112Z,25.40
2018-07-05T19:16:47.637Z,25.30
2018-07-05T19:19:27.350Z,25.20
2018-07-05T19:22:07.095Z,25.20
2018-07-05T19:24:46.657Z,25.10
2018-07-05T19:27:26.284Z,25.00
2018-07-05T19:30:06.012Z,24.90
2018-07-05T19:32:45.894Z,24.80
2018-07-05T19:35:25.617Z,24.70
2018-07-05T19:38:05.779Z,24.60
2018-07-05T19:40:45.200Z,24.50
2018-07-05T19:43:24.674Z,24.40
2018-07-05T19:46:04.441Z,24.30
2018-07-05T19:48:44.120Z,24.20
2018-07-05T19:51:23.848Z,24.20
2018-07-05T19:54:03.561Z,24.10
2018-07-05T19:56:43.297Z,24.00
2018-07-05T19:59:23.093Z,24.00
2018-07-05T20:02:02.825Z,23.90
2018-07-05T20:04:42.520Z,23.80
2018-07-05T20:07:22.157Z,23.80
2018-07-05T20:10:07.229Z,23.70
2018-07-05T20:12:47.027Z,23.60
2018-07-05T20:15:26.753Z,23.50
2018-07-05T20:18:06.575Z,23.50
2018-07-05T20:20:46.338Z,23.40
2018-07-05T20:23:26.006Z,23.30
2018-07-05T20:26:05.726Z,23.30
2018-07-05T20:28:45.295Z,23.20
2018-07-05T20:31:24.889Z,23.10
2018-07-05T20:34:04.557Z,23.10
2018-07-05T20:36:44.249Z,23.00
2018-07-05T20:39:23.877Z,22.90
2018-07-05T20:42:03.418Z,22.90
2018-07-05T20:44:43.015Z,22.80
2018-07-05T20:47:22.606Z,22.70
2018-07-05T20:50:02.413Z,22.70
2018-07-05T20:52:42.269Z,22.70
2018-07-05T20:55:21.985Z,22.60
2018-07-05T20:58:01.697Z,22.60
2018-07-05T21:00:41.478Z,22.50
2018-07-05T21:03:21.173Z,22.40
2018-07-05T21:06:00.829Z,22.40
2018-07-05T21:08:40.579Z,22.40
2018-07-05T21:11:20.326Z,22.30
2018-07-05T21:13:59.954Z,22.30
2018-07-05T21:19:13.311Z,22.10
2018-07-05T21:21:52.991Z,22.10
2018-07-05T21:24:32.687Z,22.00
2018-07-05T21:27:12.415Z,21.90
2018-07-05T21:29:52.091Z,21.80
2018-07-05T21:32:31.916Z,21.70
2018-07-05T21:35:11.623Z,21.70
2018-07-05T21:37:51.153Z,21.60
2018-07-05T21:40:30.825Z,21.50
2018-07-05T21:43:10.386Z,21.50
2018-07-05T21:45:50.169Z,21.40
2018-07-05T21:51:03.634Z,21.30
2018-07-05T21:53:43.316Z,21.20
2018-07-05T21:56:22.800Z,21.20
2018-07-05T21:59:02.434Z,21.10
2018-07-05T22:01:42.192Z,21.00
2018-07-05T22:04:21.750Z,20.90
2018-07-05T22:07:01.249Z,20.80
2018-07-05T22:09:40.873Z,20.80
2018-07-05T22:12:20.541Z,20.70
2018-07-05T22:15:00.170Z,20.60
2018-07-05T22:17:45.373Z,20.60
2018-07-05T22:20:30.752Z,20.50
2018-07-05T22:23:15.853Z,20.40
2018-07-05T22:26:01.001Z,20.30
2018-07-05T22:28:46.447Z,20.20
2018-07-05T22:31:31.040Z,20.20
2018-07-05T22:34:11.007Z,20.10
2018-07-05T22:36:51.068Z,20.10
2018-07-05T22:39:31.240Z,20.00
2018-07-05T22:42:10.787Z,20.00
2018-07-05T22:44:50.405Z,19.90
2018-07-05T22:50:03.626Z,19.80
2018-07-05T22:52:43.211Z,19.80
2018-07-05T22:55:22.863Z,19.80
2018-07-05T23:00:28.480Z,19.80
2018-07-05T23:03:08.037Z,19.70
2018-07-05T23:05:47.569Z,19.60
2018-07-05T23:08:27.139Z,19.60
2018-07-05T23:13:40.283Z,19.50
2018-07-05T23:16:19.747Z,19.40
2018-07-05T23:18:59.411Z,19.40
2018-07-05T23:21:39.023Z,19.40
2018-07-05T23:24:18.660Z,19.30
2018-07-05T23:26:58.498Z,19.30
2018-07-05T23:29:38.168Z,19.20
2018-07-05T23:32:17.754Z,19.20
2018-07-05T23:34:57.370Z,19.20
2018-07-05T23:37:37.090Z,17.40
2018-07-05T23:40:16.751Z,19.10
2018-07-05T23:42:56.424Z,19.10
2018-07-05T23:45:36.023Z,19.00
2018-07-05T23:48:15.744Z,19.00
2018-07-05T23:53:28.994Z,18.90
2018-07-05T23:56:08.448Z,18.90
2018-07-05T23:58:48.431Z,18.90
